createdAt,value
2018-05-27T00:00:59.614Z,6.30
2018-05-27T00:03:28.084Z,6.30
2018-05-27T00:05:56.461Z,6.07
2018-05-27T00:08:24.852Z,6.07
2018-05-27T00:10:53.288Z,6.67
2018-05-27T00:13:22.417Z,6.30
2018-05-27T00:15:50.780Z,6.83
2018-05-27T00:18:19.116Z,6.00
2018-05-27T00:20:47.532Z,5.60
2018-05-27T00:23:16.751Z,6.90
2018-05-27T00:25:45.095Z,6.27
2018-05-27T00:28:14.239Z,6.47
2018-05-27T00:30:42.717Z,5.80
2018-05-27T00:33:11.090Z,6.40
2018-05-27T00:35:39.684Z,5.90
2018-05-27T00:38:08.067Z,7.17
2018-05-27T00:40:36.432Z,6.53
2018-05-27T00:43:04.806Z,7.00
2018-05-27T00:45:33.163Z,6.40
2018-05-27T00:48:01.509Z,6.90
2018-05-27T00:50:29.906Z,7.80
2018-05-27T00:52:59.062Z,7.20
2018-05-27T00:55:27.412Z,6.33
2018-05-27T00:57:55.784Z,7.00
2018-05-27T01:00:24.140Z,6.53
2018-05-27T01:02:53.342Z,7.20
2018-05-27T01:05:21.727Z,7.40
2018-05-27T01:07:50.839Z,6.80
2018-05-27T01:10:19.232Z,7.27
2018-05-27T01:12:47.596Z,7.10
2018-05-27T01:15:15.953Z,7.23
2018-05-27T01:17:45.082Z,7.37
2018-05-27T01:20:13.451Z,8.50
2018-05-27T01:22:41.907Z,9.20
2018-05-27T01:25:11.094Z,9.70
2018-05-27T01:27:39.454Z,10.63
2018-05-27T01:30:07.818Z,9.73
2018-05-27T01:32:36.276Z,9.83
2018-05-27T01:35:04.653Z,11.90
2018-05-27T01:37:33.009Z,11.20
2018-05-27T01:40:01.363Z,11.30
2018-05-27T01:42:29.756Z,10.70
2018-05-27T01:44:58.869Z,11.13
2018-05-27T01:47:27.236Z,10.67
2018-05-27T01:49:56.387Z,11.17
2018-05-27T01:52:24.727Z,11.13
2018-05-27T01:54:53.111Z,9.77
2018-05-27T01:57:21.495Z,11.90
2018-05-27T01:59:49.887Z,9.80
2018-05-27T02:02:18.349Z,9.60
2018-05-27T02:04:46.826Z,9.93
2018-05-27T02:07:15.271Z,9.40
2018-05-27T02:09:44.434Z,10.10
2018-05-27T02:12:12.839Z,9.70
2018-05-27T02:14:41.209Z,11.67
2018-05-27T02:17:09.612Z,11.83
2018-05-27T02:19:38.812Z,10.30
2018-05-27T02:22:07.956Z,10.47
2018-05-27T02:24:36.426Z,11.03
2018-05-27T02:27:04.902Z,10.80
2018-05-27T02:29:33.351Z,11.10
2018-05-27T02:32:02.505Z,12.03
2018-05-27T02:34:30.878Z,11.83
2018-05-27T02:36:59.242Z,11.97
2018-05-27T02:39:27.620Z,13.37
2018-05-27T02:41:55.997Z,12.80
2018-05-27T02:44:24.343Z,12.77
2018-05-27T02:46:53.510Z,13.33
2018-05-27T02:49:22.651Z,14.03
2018-05-27T02:51:51.031Z,14.20
2018-05-27T02:54:19.489Z,14.60
2018-05-27T02:56:48.650Z,14.37
2018-05-27T02:59:17.021Z,14.50
2018-05-27T03:01:45.413Z,13.30
2018-05-27T03:04:14.570Z,14.43
2018-05-27T03:06:43.161Z,16.07
2018-05-27T03:09:11.606Z,15.03
2018-05-27T03:11:40.841Z,15.27
2018-05-27T03:14:09.247Z,14.93
2018-05-27T03:16:37.644Z,15.10
2018-05-27T03:19:06.007Z,14.83
2018-05-27T03:21:34.417Z,15.77
2018-05-27T03:24:03.558Z,15.00
2018-05-27T03:26:31.975Z,15.07
2018-05-27T03:29:00.332Z,15.17
2018-05-27T03:31:28.790Z,14.77
2018-05-27T03:33:57.170Z,16.30
2018-05-27T03:36:25.553Z,15.97
2018-05-27T03:38:54.013Z,16.30
2018-05-27T03:41:22.492Z,15.10
2018-05-27T03:43:50.886Z,17.30
2018-05-27T03:46:19.243Z,15.63
2018-05-27T03:48:47.609Z,16.53
2018-05-27T03:51:16.773Z,16.60
2018-05-27T03:53:45.892Z,16.87
2018-05-27T03:56:15.052Z,18.00
2018-05-27T03:58:43.426Z,17.20
2018-05-27T04:01:11.850Z,17.30
2018-05-27T04:03:40.963Z,16.60
2018-05-27T04:06:27.990Z,17.63
2018-05-27T04:08:56.388Z,17.07
2018-05-27T04:11:24.754Z,16.90
2018-05-27T04:13:53.223Z,16.20
2018-05-27T04:16:21.637Z,16.80
2018-05-27T04:18:49.981Z,14.53
2018-05-27T04:21:18.365Z,14.23
2018-05-27T04:23:46.739Z,15.80
2018-05-27T04:26:15.158Z,17.03
2018-05-27T04:28:43.613Z,16.57
2018-05-27T04:31:12.056Z,16.80
2018-05-27T04:33:41.202Z,17.57
2018-05-27T04:36:09.662Z,17.40
2018-05-27T04:38:38.038Z,17.07
2018-05-27T04:41:06.404Z,16.90
2018-05-27T04:43:34.784Z,15.97
2018-05-27T04:46:03.168Z,17.40
2018-05-27T04:48:31.633Z,15.77
2018-05-27T04:51:00.795Z,15.67
2018-05-27T04:53:29.180Z,17.03
2018-05-27T04:55:59.054Z,17.33
2018-05-27T04:58:27.432Z,17.97
2018-05-27T05:00:55.853Z,14.10
2018-05-27T05:03:24.230Z,16.83
2018-05-27T05:05:52.610Z,15.93
2018-05-27T05:08:21.057Z,15.30
2018-05-27T05:10:49.442Z,16.60
2018-05-27T05:13:17.804Z,16.37
2018-05-27T05:15:46.201Z,17.40
2018-05-27T05:18:14.612Z,16.63
2018-05-27T05:20:43.047Z,16.60
2018-05-27T05:23:11.438Z,16.90
2018-05-27T05:25:39.872Z,15.50
2018-05-27T05:28:09.098Z,16.37
2018-05-27T05:30:37.452Z,17.00
2018-05-27T05:33:06.590Z,15.57
2018-05-27T05:35:35.002Z,16.20
2018-05-27T05:38:03.394Z,15.60
2018-05-27T05:40:32.525Z,15.20
2018-05-27T05:43:00.976Z,14.00
2018-05-27T05:45:30.091Z,12.20
2018-05-27T05:47:58.503Z,10.87
2018-05-27T05:50:26.853Z,9.93
2018-05-27T05:52:55.255Z,9.60
2018-05-27T05:55:23.690Z,8.93
2018-05-27T05:57:52.958Z,9.27
2018-05-27T06:00:21.386Z,8.37
2018-05-27T06:02:49.732Z,8.70
2018-05-27T06:05:18.863Z,8.47
2018-05-27T06:07:47.278Z,8.27
2018-05-27T06:10:15.731Z,8.50
2018-05-27T06:12:44.103Z,8.60
2018-05-27T06:15:12.485Z,8.33
2018-05-27T06:17:40.823Z,8.50
2018-05-27T06:20:09.979Z,8.20
2018-05-27T06:22:38.444Z,8.07
2018-05-27T06:25:07.042Z,8.00
2018-05-27T06:27:35.400Z,8.27
2018-05-27T06:30:03.780Z,8.67
2018-05-27T06:32:32.176Z,7.70
2018-05-27T06:35:00.525Z,7.70
2018-05-27T06:37:28.924Z,6.50
2018-05-27T06:39:57.317Z,7.30
2018-05-27T06:42:25.744Z,6.50
2018-05-27T06:44:54.933Z,8.27
2018-05-27T06:47:24.055Z,8.10
2018-05-27T06:49:52.495Z,9.50
2018-05-27T06:52:20.934Z,10.13
2018-05-27T06:54:49.284Z,9.60
2018-05-27T06:57:18.399Z,10.27
2018-05-27T06:59:46.762Z,10.07
2018-05-27T07:02:15.253Z,10.60
2018-05-27T07:04:43.757Z,11.23
2018-05-27T07:07:12.104Z,11.87
2018-05-27T07:09:40.511Z,11.17
2018-05-27T07:12:08.936Z,11.57
2018-05-27T07:14:37.360Z,11.30
2018-05-27T07:17:05.895Z,12.00
2018-05-27T07:19:34.275Z,10.90
2018-05-27T07:22:02.647Z,12.03
2018-05-27T07:24:31.798Z,12.30
2018-05-27T07:27:00.309Z,12.33
2018-05-27T07:29:28.694Z,10.90
2018-05-27T07:31:57.057Z,10.63
2018-05-27T07:34:25.426Z,11.03
2018-05-27T07:36:53.802Z,10.20
2018-05-27T07:39:22.138Z,11.40
2018-05-27T07:41:51.272Z,9.90
2018-05-27T07:44:19.641Z,13.70
2018-05-27T07:46:48.011Z,11.60
2018-05-27T07:49:16.404Z,12.23
2018-05-27T07:51:44.781Z,10.50
2018-05-27T07:54:13.436Z,9.77
2018-05-27T07:56:42.629Z,10.03
2018-05-27T07:59:11.736Z,9.57
2018-05-27T08:01:41.040Z,8.33
2018-05-27T08:04:09.399Z,9.93
2018-05-27T08:06:38.550Z,7.87
2018-05-27T08:09:06.935Z,8.30
2018-05-27T08:11:35.324Z,9.40
2018-05-27T08:14:03.759Z,9.43
2018-05-27T08:16:32.109Z,7.97
2018-05-27T08:19:01.340Z,8.60
2018-05-27T08:21:29.747Z,8.63
2018-05-27T08:23:58.133Z,7.47
2018-05-27T08:26:26.541Z,7.63
2018-05-27T08:28:55.657Z,10.07
2018-05-27T08:31:24.759Z,7.53
2018-05-27T08:33:53.910Z,7.27
2018-05-27T08:36:22.294Z,7.57
2018-05-27T08:41:26.117Z,7.70
2018-05-27T08:43:54.502Z,7.20
2018-05-27T08:46:22.844Z,5.93
2018-05-27T08:48:51.331Z,4.90
2018-05-27T08:51:19.777Z,4.00
2018-05-27T08:53:48.155Z,4.20
2018-05-27T08:56:16.608Z,3.10
2018-05-27T08:58:44.940Z,2.60
2018-05-27T09:01:13.428Z,2.97
2018-05-27T09:03:41.823Z,2.63
2018-05-27T09:06:10.153Z,2.50
2018-05-27T09:08:38.583Z,2.20
2018-05-27T09:11:07.703Z,2.73
2018-05-27T09:13:36.823Z,2.73
2018-05-27T09:16:05.214Z,2.60
2018-05-27T09:18:33.636Z,2.40
2018-05-27T09:21:01.997Z,2.77
2018-05-27T09:23:30.394Z,2.40
2018-05-27T09:25:58.894Z,2.00
2018-05-27T09:28:28.037Z,2.23
2018-05-27T09:30:56.551Z,1.60
2018-05-27T09:33:24.870Z,2.20
2018-05-27T09:35:53.200Z,1.70
2018-05-27T09:38:21.653Z,2.40
2018-05-27T09:40:50.121Z,2.53
2018-05-27T09:43:18.522Z,1.80
2018-05-27T09:45:46.915Z,1.63
2018-05-27T09:48:15.352Z,2.10
2018-05-27T09:50:43.734Z,1.90
2018-05-27T09:53:12.140Z,2.00
2018-05-27T09:55:40.525Z,2.17
2018-05-27T09:58:08.944Z,1.90
2018-05-27T10:00:37.357Z,1.70
2018-05-27T10:03:05.725Z,1.93
2018-05-27T10:05:34.210Z,2.00
2018-05-27T10:08:02.605Z,2.10
2018-05-27T10:10:31.027Z,1.80
2018-05-27T10:12:59.429Z,2.20
2018-05-27T10:15:28.561Z,2.77
2018-05-27T10:17:56.916Z,2.90
2018-05-27T10:20:25.294Z,2.60
2018-05-27T10:22:53.684Z,3.33
2018-05-27T10:25:22.036Z,3.87
2018-05-27T10:27:50.473Z,4.50
2018-05-27T10:30:18.899Z,5.00
2018-05-27T10:32:48.245Z,4.00
2018-05-27T10:35:16.650Z,5.03
2018-05-27T10:37:44.987Z,3.90
2018-05-27T10:40:13.370Z,4.40
2018-05-27T10:42:41.751Z,4.50
2018-05-27T10:45:10.293Z,4.00
2018-05-27T10:47:39.401Z,3.67
2018-05-27T10:50:07.759Z,5.40
2018-05-27T10:52:36.909Z,4.80
2018-05-27T10:55:05.373Z,4.53
2018-05-27T10:57:33.762Z,4.60
2018-05-27T11:00:02.129Z,4.60
2018-05-27T11:02:30.572Z,4.90
2018-05-27T11:04:59.768Z,4.03
2018-05-27T11:07:28.121Z,4.43
2018-05-27T11:09:56.512Z,4.10
2018-05-27T11:12:25.629Z,4.67
2018-05-27T11:14:54.784Z,4.37
2018-05-27T11:17:23.226Z,4.90
2018-05-27T11:19:51.600Z,4.00
2018-05-27T11:22:19.985Z,4.30
2018-05-27T11:24:48.357Z,4.20
2018-05-27T11:27:16.744Z,4.07
2018-05-27T11:29:45.169Z,4.23
2018-05-27T11:32:13.554Z,4.70
2018-05-27T11:34:41.894Z,3.80
2018-05-27T11:37:10.356Z,4.53
2018-05-27T11:39:38.720Z,4.00
2018-05-27T11:42:07.913Z,4.37
2018-05-27T11:44:37.076Z,3.80
2018-05-27T11:47:05.451Z,3.30
2018-05-27T11:49:33.864Z,3.90
2018-05-27T11:52:02.254Z,4.27
2018-05-27T11:54:30.649Z,3.97
2018-05-27T11:56:59.094Z,4.27
2018-05-27T11:59:28.287Z,4.67
2018-05-27T12:01:56.638Z,5.00
2018-05-27T12:04:25.006Z,4.23
2018-05-27T12:06:53.381Z,4.10
2018-05-27T12:09:21.848Z,3.70
2018-05-27T12:11:50.252Z,4.20
2018-05-27T12:14:18.594Z,4.80
2018-05-27T12:16:46.944Z,4.40
2018-05-27T12:19:16.104Z,3.37
2018-05-27T12:21:44.567Z,5.13
2018-05-27T12:24:13.000Z,4.50
2018-05-27T12:26:41.338Z,5.00
2018-05-27T12:29:09.686Z,4.23
2018-05-27T12:31:38.072Z,4.40
2018-05-27T12:34:06.462Z,4.43
2018-05-27T12:36:34.844Z,4.40
2018-05-27T12:39:03.226Z,4.50
2018-05-27T12:41:31.686Z,4.30
2018-05-27T12:44:00.127Z,4.23
2018-05-27T12:46:29.264Z,4.30
2018-05-27T12:48:57.751Z,4.20
2018-05-27T12:51:26.101Z,4.57
2018-05-27T12:53:55.316Z,5.20
2018-05-27T12:56:23.705Z,4.87
2018-05-27T12:58:52.178Z,4.00
2018-05-27T13:01:20.648Z,4.47
2018-05-27T13:03:49.022Z,4.47
2018-05-27T13:06:18.143Z,5.23
2018-05-27T13:08:46.527Z,4.67
2018-05-27T13:11:14.955Z,4.97
2018-05-27T13:13:43.298Z,4.70
2018-05-27T13:16:11.647Z,4.87
2018-05-27T13:18:40.034Z,4.90
2018-05-27T13:21:08.367Z,5.60
2018-05-27T13:23:36.812Z,5.50
2018-05-27T13:26:05.205Z,5.67
2018-05-27T13:28:33.665Z,5.70
2018-05-27T13:31:02.102Z,5.13
2018-05-27T13:33:30.495Z,6.13
2018-05-27T13:35:58.903Z,5.83
2018-05-27T13:38:27.265Z,5.40
2018-05-27T13:40:55.696Z,6.63
2018-05-27T13:43:24.109Z,6.20
2018-05-27T13:45:52.581Z,5.43
2018-05-27T13:48:21.738Z,5.50
2018-05-27T13:50:50.112Z,5.47
2018-05-27T13:53:18.513Z,5.70
2018-05-27T13:55:46.950Z,5.60
2018-05-27T13:58:15.290Z,5.17
2018-05-27T14:00:44.457Z,5.63
2018-05-27T14:03:14.348Z,4.87
2018-05-27T14:05:43.486Z,5.73
2018-05-27T14:08:11.919Z,4.90
2018-05-27T14:10:40.293Z,5.20
2018-05-27T14:13:08.770Z,5.20
2018-05-27T14:15:37.165Z,5.40
2018-05-27T14:18:05.536Z,5.03
2018-05-27T14:20:33.905Z,4.50
2018-05-27T14:23:02.250Z,4.97
2018-05-27T14:25:31.361Z,4.07
2018-05-27T14:27:59.709Z,4.50
2018-05-27T14:30:28.895Z,3.80
2018-05-27T14:32:57.234Z,3.77
2018-05-27T14:35:25.579Z,3.97
2018-05-27T14:37:54.750Z,3.87
2018-05-27T14:40:23.147Z,3.90
2018-05-27T14:42:52.385Z,3.23
2018-05-27T14:45:20.829Z,3.50
2018-05-27T14:47:50.025Z,3.77
2018-05-27T14:50:19.158Z,3.60
2018-05-27T14:52:47.635Z,3.50
2018-05-27T14:55:16.014Z,3.27
2018-05-27T14:57:44.510Z,3.47
2018-05-27T15:00:12.885Z,3.63
2018-05-27T15:02:41.236Z,3.43
2018-05-27T15:05:09.612Z,3.70
2018-05-27T15:07:38.112Z,4.03
2018-05-27T15:10:06.447Z,3.90
2018-05-27T15:12:34.827Z,4.10
2018-05-27T15:15:03.998Z,3.90
2018-05-27T15:17:32.357Z,4.20
2018-05-27T15:20:00.743Z,4.40
2018-05-27T15:22:29.079Z,3.80
2018-05-27T15:24:57.442Z,4.30
2018-05-27T15:27:26.661Z,4.20
2018-05-27T15:29:55.125Z,4.20
2018-05-27T15:32:24.349Z,4.43
2018-05-27T15:34:52.802Z,3.63
2018-05-27T15:37:21.960Z,3.57
2018-05-27T15:39:50.466Z,3.73
2018-05-27T15:42:19.576Z,4.40
2018-05-27T15:44:48.728Z,4.63
2018-05-27T15:47:17.081Z,18.00
2018-05-27T15:49:45.442Z,21.20
2018-05-27T15:52:13.842Z,17.53
2018-05-27T15:54:42.196Z,11.63
2018-05-27T15:57:11.334Z,10.83
2018-05-27T15:59:39.813Z,5.87
2018-05-27T16:02:08.276Z,4.93
2018-05-27T16:04:36.650Z,17.33
2018-05-27T16:07:04.992Z,5.40
2018-05-27T16:09:34.119Z,18.80
2018-05-27T16:12:02.536Z,5.20
2018-05-27T16:14:30.908Z,4.90
2018-05-27T16:16:59.289Z,5.80
2018-05-27T16:19:27.721Z,5.33
2018-05-27T16:24:53.322Z,5.00
2018-05-27T16:27:21.729Z,4.73
2018-05-27T16:29:50.857Z,5.30
2018-05-27T16:32:19.340Z,5.73
2018-05-27T16:34:47.716Z,5.70
2018-05-27T16:37:16.051Z,5.40
2018-05-27T16:39:45.215Z,5.07
2018-05-27T16:42:13.580Z,6.60
2018-05-27T16:44:42.036Z,6.60
2018-05-27T16:47:10.404Z,6.20
2018-05-27T16:49:38.763Z,5.33
2018-05-27T16:52:07.998Z,5.93
2018-05-27T16:54:36.337Z,6.33
2018-05-27T16:57:05.477Z,5.80
2018-05-27T16:59:33.865Z,6.23
2018-05-27T17:02:02.352Z,6.57
2018-05-27T17:04:30.761Z,5.90
2018-05-27T17:06:59.184Z,6.10
2018-05-27T17:09:27.713Z,5.77
2018-05-27T17:11:56.127Z,5.40
2018-05-27T17:14:25.256Z,5.93
2018-05-27T17:16:53.737Z,5.97
2018-05-27T17:19:22.074Z,5.67
2018-05-27T17:21:51.180Z,7.27
2018-05-27T17:24:20.393Z,6.20
2018-05-27T17:26:48.732Z,6.10
2018-05-27T17:29:17.132Z,6.10
2018-05-27T17:31:46.294Z,6.37
2018-05-27T17:34:14.649Z,6.37
2018-05-27T17:36:43.081Z,6.23
2018-05-27T17:39:12.218Z,7.00
2018-05-27T17:41:40.591Z,8.10
2018-05-27T17:44:08.956Z,8.67
2018-05-27T17:46:37.338Z,7.20
2018-05-27T17:49:05.703Z,7.40
2018-05-27T17:51:34.060Z,7.70
2018-05-27T17:54:03.201Z,8.03
2018-05-27T17:56:31.557Z,7.33
2018-05-27T17:58:59.917Z,6.87
2018-05-27T18:01:29.028Z,8.10
2018-05-27T18:03:57.420Z,8.30
2018-05-27T18:06:25.772Z,7.53
2018-05-27T18:08:54.906Z,8.10
2018-05-27T18:11:23.304Z,8.30
2018-05-27T18:13:51.667Z,6.93
2018-05-27T18:16:20.081Z,7.43
2018-05-27T18:18:48.469Z,8.00
2018-05-27T18:21:16.874Z,8.40
2018-05-27T18:23:45.263Z,7.80
2018-05-27T18:26:14.406Z,7.93
2018-05-27T18:28:42.799Z,8.10
2018-05-27T18:31:11.181Z,8.67
2018-05-27T18:33:39.552Z,7.47
2018-05-27T18:36:08.000Z,8.43
2018-05-27T18:38:36.376Z,8.70
2018-05-27T18:41:04.725Z,7.53
2018-05-27T18:43:33.093Z,8.00
2018-05-27T18:46:02.194Z,8.90
2018-05-27T18:48:31.348Z,8.70
2018-05-27T18:50:59.734Z,9.50
2018-05-27T18:53:28.156Z,8.70
2018-05-27T18:55:57.391Z,7.87
2018-05-27T18:58:26.104Z,9.00
2018-05-27T19:00:54.813Z,8.77
2018-05-27T19:03:23.975Z,10.03
2018-05-27T19:05:52.338Z,9.70
2018-05-27T19:08:20.746Z,8.20
2018-05-27T19:10:49.123Z,9.10
2018-05-27T19:13:18.323Z,9.33
2018-05-27T19:15:46.712Z,9.27
2018-05-27T19:18:15.832Z,9.90
2018-05-27T19:20:44.233Z,9.70
2018-05-27T19:23:12.637Z,8.00
2018-05-27T19:25:41.010Z,8.57
2018-05-27T19:28:09.461Z,9.20
2018-05-27T19:30:37.968Z,8.90
2018-05-27T19:33:06.376Z,9.77
2018-05-27T19:35:34.783Z,10.23
2018-05-27T19:38:03.150Z,9.00
2018-05-27T19:40:32.305Z,9.20
2018-05-27T19:43:00.675Z,9.13
2018-05-27T19:45:29.072Z,9.37
2018-05-27T19:47:57.492Z,9.47
2018-05-27T19:50:26.639Z,9.90
2018-05-27T19:52:55.024Z,10.27
2018-05-27T19:55:23.385Z,9.13
2018-05-27T19:57:51.769Z,9.60
2018-05-27T20:00:20.131Z,10.57
2018-05-27T20:02:48.508Z,10.07
2018-05-27T20:05:16.870Z,10.87
2018-05-27T20:07:45.224Z,10.00
2018-05-27T20:10:14.397Z,10.67
2018-05-27T20:12:42.804Z,9.53
2018-05-27T20:15:11.927Z,11.13
2018-05-27T20:17:40.276Z,10.10
2018-05-27T20:20:09.441Z,11.00
2018-05-27T20:22:37.810Z,11.13
2018-05-27T20:25:06.197Z,12.37
2018-05-27T20:27:34.592Z,10.00
2018-05-27T20:30:03.011Z,11.07
2018-05-27T20:32:31.371Z,11.20
2018-05-27T20:35:00.538Z,12.10
2018-05-27T20:37:28.910Z,11.83
2018-05-27T20:39:57.284Z,12.07
2018-05-27T20:42:25.697Z,13.03
2018-05-27T20:44:54.889Z,12.73
2018-05-27T20:47:24.065Z,13.50
2018-05-27T20:49:52.480Z,13.37
2018-05-27T20:52:20.901Z,13.13
2018-05-27T20:54:49.273Z,13.23
2018-05-27T20:57:17.640Z,13.33
2018-05-27T20:59:45.997Z,15.00
2018-05-27T21:02:15.115Z,13.00
2018-05-27T21:04:43.461Z,13.40
2018-05-27T21:07:12.657Z,14.03
2018-05-27T21:09:41.804Z,13.37
2018-05-27T21:12:10.185Z,13.47
2018-05-27T21:14:38.579Z,14.07
2018-05-27T21:17:06.940Z,13.23
2018-05-27T21:19:35.329Z,13.77
2018-05-27T21:22:03.693Z,12.17
2018-05-27T21:24:32.073Z,12.30
2018-05-27T21:27:00.450Z,12.10
2018-05-27T21:29:28.854Z,12.10
2018-05-27T21:31:57.243Z,11.77
2018-05-27T21:34:25.672Z,11.37
2018-05-27T21:36:54.061Z,12.00
2018-05-27T21:39:22.443Z,11.50
2018-05-27T21:41:50.831Z,11.43
2018-05-27T21:44:19.209Z,11.70
2018-05-27T21:46:47.590Z,11.50
2018-05-27T21:49:16.031Z,11.47
2018-05-27T21:51:45.195Z,11.63
2018-05-27T21:54:13.559Z,11.00
2018-05-27T21:56:41.937Z,10.43
2018-05-27T21:59:10.313Z,10.57
2018-05-27T22:01:38.679Z,11.33
2018-05-27T22:04:07.036Z,11.93
2018-05-27T22:06:35.411Z,10.57
2018-05-27T22:09:03.772Z,11.30
2018-05-27T22:11:32.140Z,11.93
2018-05-27T22:14:01.295Z,10.63
2018-05-27T22:16:29.680Z,11.03
2018-05-27T22:18:58.083Z,10.50
2018-05-27T22:21:26.453Z,11.10
2018-05-27T22:23:54.814Z,10.27
2018-05-27T22:26:23.208Z,9.90
2018-05-27T22:28:51.572Z,11.30
2018-05-27T22:31:19.967Z,11.10
2018-05-27T22:33:48.357Z,10.60
2018-05-27T22:36:17.493Z,11.10
2018-05-27T22:38:45.844Z,12.30
2018-05-27T22:41:14.992Z,10.20
2018-05-27T22:43:43.372Z,11.97
2018-05-27T22:46:11.720Z,12.63
2018-05-27T22:48:40.111Z,11.93
2018-05-27T22:51:08.462Z,12.30
2018-05-27T22:53:37.630Z,12.73
2018-05-27T22:56:06.018Z,12.73
2018-05-27T22:58:35.160Z,12.57
2018-05-27T23:01:03.530Z,12.43
2018-05-27T23:03:31.908Z,13.07
2018-05-27T23:06:00.320Z,13.03
2018-05-27T23:08:28.708Z,12.60
2018-05-27T23:10:57.102Z,14.17
2018-05-27T23:13:25.467Z,13.90
2018-05-27T23:15:53.872Z,13.40
2018-05-27T23:18:23.063Z,13.53
2018-05-27T23:20:51.449Z,12.63
2018-05-27T23:23:20.604Z,14.43
2018-05-27T23:25:48.971Z,13.00
2018-05-27T23:28:17.340Z,13.77
2018-05-27T23:30:45.675Z,12.57
2018-05-27T23:33:14.075Z,12.50
2018-05-27T23:35:43.961Z,16.40
2018-05-27T23:38:12.366Z,14.37
2018-05-27T23:40:40.750Z,13.40
2018-05-27T23:43:09.111Z,14.90
2018-05-27T23:45:38.233Z,15.30
2018-05-27T23:48:06.591Z,13.77
2018-05-27T23:50:35.710Z,14.50
2018-05-27T23:53:04.124Z,15.27
2018-05-27T23:55:32.475Z,14.43
2018-05-27T23:58:00.857Z,15.07
